sensor_id;sensor_type;location;lat;lon;timestamp;P1;durP1;ratioP1;P2;durP2;ratioP2
79702;SDS011;69172;52.352;5.006;2024-02-26T00:01:52;10.65;;;4.47;;
79702;SDS011;69172;52.352;5.006;2024-02-26T00:07:40;8.23;;;4.20;;
79702;SDS011;69172;52.352;5.006;2024-02-26T00:10:05;11.35;;;3.85;;
79702;SDS011;69172;52.352;5.006;2024-02-26T00:12:31;9.85;;;3.70;;
79702;SDS011;69172;52.352;5.006;2024-02-26T00:14:56;11.07;;;4.93;;
79702;SDS011;69172;52.352;5.006;2024-02-26T00:17:23;8.90;;;3.70;;
79702;SDS011;69172;52.352;5.006;2024-02-26T00:19:49;8.48;;;3.97;;
79702;SDS011;69172;52.352;5.006;2024-02-26T00:22:15;9.10;;;4.53;;
79702;SDS011;69172;52.352;5.006;2024-02-26T00:24:41;9.95;;;4.72;;
79702;SDS011;69172;52.352;5.006;2024-02-26T00:27:09;9.68;;;4.35;;
79702;SDS011;69172;52.352;5.006;2024-02-26T00:29:37;11.68;;;5.45;;
79702;SDS011;69172;52.352;5.006;2024-02-26T00:32:02;10.25;;;4.55;;
79702;SDS011;69172;52.352;5.006;2024-02-26T00:34:28;11.18;;;4.88;;
79702;SDS011;69172;52.352;5.006;2024-02-26T00:43:55;11.48;;;4.95;;
79702;SDS011;69172;52.352;5.006;2024-02-26T00:50:16;13.02;;;5.72;;
79702;SDS011;69172;52.352;5.006;2024-02-26T00:52:43;12.35;;;5.28;;
79702;SDS011;69172;52.352;5.006;2024-02-26T00:55:24;16.52;;;6.63;;
79702;SDS011;69172;52.352;5.006;2024-02-26T00:57:50;13.27;;;6.30;;
79702;SDS011;69172;52.352;5.006;2024-02-26T01:00:15;14.95;;;6.55;;
79702;SDS011;69172;52.352;5.006;2024-02-26T01:02:41;14.73;;;6.63;;
79702;SDS011;69172;52.352;5.006;2024-02-26T01:05:08;17.80;;;6.55;;
79702;SDS011;69172;52.352;5.006;2024-02-26T01:07:38;12.27;;;6.15;;
79702;SDS011;69172;52.352;5.006;2024-02-26T01:10:04;12.35;;;5.78;;
79702;SDS011;69172;52.352;5.006;2024-02-26T01:12:31;13.02;;;5.57;;
79702;SDS011;69172;52.352;5.006;2024-02-26T01:14:57;11.45;;;5.70;;
79702;SDS011;69172;52.352;5.006;2024-02-26T01:17:22;11.90;;;5.40;;
79702;SDS011;69172;52.352;5.006;2024-02-26T01:19:47;14.85;;;5.90;;
79702;SDS011;69172;52.352;5.006;2024-02-26T01:22:16;11.18;;;4.93;;
79702;SDS011;69172;52.352;5.006;2024-02-26T01:24:46;12.43;;;4.97;;
79702;SDS011;69172;52.352;5.006;2024-02-26T01:27:13;10.02;;;4.72;;
79702;SDS011;69172;52.352;5.006;2024-02-26T01:30:11;12.20;;;5.10;;
79702;SDS011;69172;52.352;5.006;2024-02-26T01:33:22;10.05;;;4.30;;
79702;SDS011;69172;52.352;5.006;2024-02-26T01:35:47;10.10;;;4.53;;
79702;SDS011;69172;52.352;5.006;2024-02-26T01:38:14;10.05;;;4.30;;
79702;SDS011;69172;52.352;5.006;2024-02-26T01:40:40;9.55;;;4.35;;
79702;SDS011;69172;52.352;5.006;2024-02-26T01:43:05;12.73;;;5.10;;
79702;SDS011;69172;52.352;5.006;2024-02-26T01:45:30;10.35;;;4.15;;
79702;SDS011;69172;52.352;5.006;2024-02-26T01:47:56;10.48;;;4.88;;
79702;SDS011;69172;52.352;5.006;2024-02-26T01:50:23;10.88;;;4.88;;
79702;SDS011;69172;52.352;5.006;2024-02-26T01:52:49;10.52;;;4.45;;
79702;SDS011;69172;52.352;5.006;2024-02-26T01:55:16;10.63;;;5.07;;
79702;SDS011;69172;52.352;5.006;2024-02-26T01:57:44;10.73;;;5.10;;
79702;SDS011;69172;52.352;5.006;2024-02-26T02:00:11;11.52;;;5.32;;
79702;SDS011;69172;52.352;5.006;2024-02-26T02:02:45;12.50;;;4.93;;
79702;SDS011;69172;52.352;5.006;2024-02-26T02:05:14;11.45;;;5.20;;
79702;SDS011;69172;52.352;5.006;2024-02-26T02:07:42;14.82;;;6.60;;
79702;SDS011;69172;52.352;5.006;2024-02-26T02:10:09;12.52;;;6.18;;
79702;SDS011;69172;52.352;5.006;2024-02-26T02:12:35;11.63;;;5.45;;
79702;SDS011;69172;52.352;5.006;2024-02-26T02:15:03;11.52;;;5.85;;
79702;SDS011;69172;52.352;5.006;2024-02-26T02:17:30;12.93;;;6.20;;
79702;SDS011;69172;52.352;5.006;2024-02-26T02:19:57;13.38;;;5.78;;
79702;SDS011;69172;52.352;5.006;2024-02-26T02:22:22;13.73;;;6.82;;
79702;SDS011;69172;52.352;5.006;2024-02-26T02:24:48;15.13;;;6.07;;
79702;SDS011;69172;52.352;5.006;2024-02-26T02:27:15;15.48;;;6.53;;
79702;SDS011;69172;52.352;5.006;2024-02-26T02:29:40;14.75;;;6.40;;
79702;SDS011;69172;52.352;5.006;2024-02-26T02:32:08;14.35;;;6.78;;
79702;SDS011;69172;52.352;5.006;2024-02-26T02:34:33;13.40;;;6.68;;
79702;SDS011;69172;52.352;5.006;2024-02-26T02:36:59;15.70;;;7.07;;
79702;SDS011;69172;52.352;5.006;2024-02-26T02:39:24;13.25;;;6.32;;
79702;SDS011;69172;52.352;5.006;2024-02-26T02:41:50;14.25;;;6.55;;
79702;SDS011;69172;52.352;5.006;2024-02-26T02:44:16;14.95;;;6.82;;
79702;SDS011;69172;52.352;5.006;2024-02-26T02:46:43;14.98;;;6.25;;
79702;SDS011;69172;52.352;5.006;2024-02-26T02:49:10;16.15;;;7.03;;
79702;SDS011;69172;52.352;5.006;2024-02-26T02:51:36;15.18;;;6.90;;
79702;SDS011;69172;52.352;5.006;2024-02-26T02:54:02;17.52;;;7.88;;
79702;SDS011;69172;52.352;5.006;2024-02-26T02:56:27;14.85;;;7.25;;
79702;SDS011;69172;52.352;5.006;2024-02-26T02:58:53;16.23;;;7.45;;
79702;SDS011;69172;52.352;5.006;2024-02-26T03:01:18;15.85;;;7.30;;
79702;SDS011;69172;52.352;5.006;2024-02-26T03:03:44;17.08;;;7.55;;
79702;SDS011;69172;52.352;5.006;2024-02-26T03:06:09;17.00;;;7.35;;
79702;SDS011;69172;52.352;5.006;2024-02-26T03:08:34;16.58;;;7.65;;
79702;SDS011;69172;52.352;5.006;2024-02-26T03:11:03;19.23;;;7.32;;
79702;SDS011;69172;52.352;5.006;2024-02-26T03:13:30;15.57;;;7.78;;
79702;SDS011;69172;52.352;5.006;2024-02-26T03:15:55;17.48;;;7.57;;
79702;SDS011;69172;52.352;5.006;2024-02-26T03:18:20;17.63;;;7.85;;
79702;SDS011;69172;52.352;5.006;2024-02-26T03:20:45;19.20;;;8.40;;
79702;SDS011;69172;52.352;5.006;2024-02-26T03:23:11;18.92;;;8.52;;
79702;SDS011;69172;52.352;5.006;2024-02-26T03:25:41;16.55;;;7.38;;
79702;SDS011;69172;52.352;5.006;2024-02-26T03:28:06;16.90;;;7.28;;
79702;SDS011;69172;52.352;5.006;2024-02-26T03:30:32;17.42;;;7.80;;
79702;SDS011;69172;52.352;5.006;2024-02-26T03:32:59;15.63;;;7.32;;
79702;SDS011;69172;52.352;5.006;2024-02-26T03:35:25;16.35;;;8.40;;
79702;SDS011;69172;52.352;5.006;2024-02-26T03:37:50;19.48;;;8.23;;
79702;SDS011;69172;52.352;5.006;2024-02-26T03:40:17;17.15;;;8.05;;
79702;SDS011;69172;52.352;5.006;2024-02-26T03:42:45;18.67;;;8.10;;
79702;SDS011;69172;52.352;5.006;2024-02-26T03:45:11;16.98;;;7.63;;
79702;SDS011;69172;52.352;5.006;2024-02-26T03:47:37;17.98;;;7.88;;
79702;SDS011;69172;52.352;5.006;2024-02-26T03:50:05;16.70;;;8.15;;
79702;SDS011;69172;52.352;5.006;2024-02-26T03:52:31;19.13;;;8.00;;
79702;SDS011;69172;52.352;5.006;2024-02-26T03:54:57;16.48;;;6.90;;
79702;SDS011;69172;52.352;5.006;2024-02-26T03:57:22;18.70;;;8.73;;
79702;SDS011;69172;52.352;5.006;2024-02-26T03:59:48;19.35;;;8.27;;
79702;SDS011;69172;52.352;5.006;2024-02-26T04:02:13;19.38;;;8.77;;
79702;SDS011;69172;52.352;5.006;2024-02-26T04:04:38;17.85;;;8.05;;
79702;SDS011;69172;52.352;5.006;2024-02-26T04:07:04;16.25;;;7.57;;
79702;SDS011;69172;52.352;5.006;2024-02-26T04:09:31;16.10;;;7.55;;
79702;SDS011;69172;52.352;5.006;2024-02-26T04:14:43;15.55;;;7.65;;
79702;SDS011;69172;52.352;5.006;2024-02-26T04:17:09;17.20;;;8.50;;
79702;SDS011;69172;52.352;5.006;2024-02-26T04:19:37;18.65;;;8.30;;
79702;SDS011;69172;52.352;5.006;2024-02-26T04:22:03;17.20;;;6.90;;
79702;SDS011;69172;52.352;5.006;2024-02-26T04:24:30;17.98;;;7.88;;
79702;SDS011;69172;52.352;5.006;2024-02-26T04:27:02;18.60;;;7.85;;
79702;SDS011;69172;52.352;5.006;2024-02-26T04:29:28;17.83;;;9.02;;
79702;SDS011;69172;52.352;5.006;2024-02-26T04:31:55;17.02;;;7.05;;
79702;SDS011;69172;52.352;5.006;2024-02-26T04:34:20;18.00;;;7.90;;
79702;SDS011;69172;52.352;5.006;2024-02-26T04:36:45;21.05;;;8.98;;
79702;SDS011;69172;52.352;5.006;2024-02-26T04:39:13;18.95;;;8.05;;
79702;SDS011;69172;52.352;5.006;2024-02-26T04:41:38;20.17;;;8.75;;
79702;SDS011;69172;52.352;5.006;2024-02-26T04:44:04;16.20;;;7.53;;
79702;SDS011;69172;52.352;5.006;2024-02-26T04:46:29;19.63;;;8.40;;
79702;SDS011;69172;52.352;5.006;2024-02-26T04:48:54;21.20;;;9.88;;
79702;SDS011;69172;52.352;5.006;2024-02-26T04:51:20;19.30;;;8.75;;
79702;SDS011;69172;52.352;5.006;2024-02-26T04:53:45;19.50;;;8.10;;
79702;SDS011;69172;52.352;5.006;2024-02-26T04:56:10;21.35;;;9.45;;
79702;SDS011;69172;52.352;5.006;2024-02-26T04:58:36;19.67;;;8.73;;
79702;SDS011;69172;52.352;5.006;2024-02-26T05:01:01;21.20;;;9.90;;
79702;SDS011;69172;52.352;5.006;2024-02-26T05:03:28;21.15;;;8.95;;
79702;SDS011;69172;52.352;5.006;2024-02-26T05:05:53;21.42;;;9.52;;
79702;SDS011;69172;52.352;5.006;2024-02-26T05:08:19;24.02;;;9.55;;
79702;SDS011;69172;52.352;5.006;2024-02-26T05:10:48;20.98;;;9.30;;
79702;SDS011;69172;52.352;5.006;2024-02-26T05:13:14;22.88;;;10.50;;
79702;SDS011;69172;52.352;5.006;2024-02-26T05:15:40;24.10;;;11.25;;
79702;SDS011;69172;52.352;5.006;2024-02-26T05:18:06;25.17;;;11.18;;
79702;SDS011;69172;52.352;5.006;2024-02-26T05:20:33;23.00;;;10.95;;
79702;SDS011;69172;52.352;5.006;2024-02-26T05:23:01;23.63;;;10.65;;
79702;SDS011;69172;52.352;5.006;2024-02-26T05:25:26;27.40;;;12.40;;
79702;SDS011;69172;52.352;5.006;2024-02-26T05:27:51;24.17;;;12.02;;
79702;SDS011;69172;52.352;5.006;2024-02-26T05:30:17;23.90;;;11.43;;
79702;SDS011;69172;52.352;5.006;2024-02-26T05:32:42;23.35;;;9.43;;
79702;SDS011;69172;52.352;5.006;2024-02-26T05:35:08;24.23;;;10.27;;
79702;SDS011;69172;52.352;5.006;2024-02-26T05:37:33;23.08;;;10.95;;
79702;SDS011;69172;52.352;5.006;2024-02-26T05:39:59;24.20;;;11.27;;
79702;SDS011;69172;52.352;5.006;2024-02-26T05:42:24;25.20;;;11.05;;
79702;SDS011;69172;52.352;5.006;2024-02-26T05:44:50;26.42;;;12.15;;
79702;SDS011;69172;52.352;5.006;2024-02-26T05:47:15;24.38;;;11.23;;
79702;SDS011;69172;52.352;5.006;2024-02-26T05:49:41;22.73;;;11.20;;
79702;SDS011;69172;52.352;5.006;2024-02-26T05:52:06;23.15;;;11.25;;
79702;SDS011;69172;52.352;5.006;2024-02-26T05:54:32;22.05;;;10.43;;
79702;SDS011;69172;52.352;5.006;2024-02-26T05:56:57;23.38;;;11.45;;
79702;SDS011;69172;52.352;5.006;2024-02-26T05:59:23;28.00;;;11.68;;
79702;SDS011;69172;52.352;5.006;2024-02-26T06:01:48;25.65;;;11.95;;
79702;SDS011;69172;52.352;5.006;2024-02-26T06:04:14;26.35;;;11.95;;
79702;SDS011;69172;52.352;5.006;2024-02-26T06:06:39;26.67;;;11.32;;
79702;SDS011;69172;52.352;5.006;2024-02-26T06:09:05;23.70;;;10.25;;
79702;SDS011;69172;52.352;5.006;2024-02-26T06:11:30;24.27;;;10.73;;
79702;SDS011;69172;52.352;5.006;2024-02-26T06:13:56;25.15;;;11.40;;
79702;SDS011;69172;52.352;5.006;2024-02-26T06:16:21;25.10;;;11.43;;
79702;SDS011;69172;52.352;5.006;2024-02-26T06:18:48;23.55;;;11.38;;
79702;SDS011;69172;52.352;5.006;2024-02-26T06:21:13;22.13;;;11.65;;
79702;SDS011;69172;52.352;5.006;2024-02-26T06:23:39;22.25;;;10.90;;
79702;SDS011;69172;52.352;5.006;2024-02-26T06:26:05;24.13;;;11.25;;
79702;SDS011;69172;52.352;5.006;2024-02-26T06:28:31;24.67;;;11.65;;
79702;SDS011;69172;52.352;5.006;2024-02-26T06:30:58;21.33;;;9.52;;
79702;SDS011;69172;52.352;5.006;2024-02-26T06:33:23;22.88;;;9.88;;
79702;SDS011;69172;52.352;5.006;2024-02-26T06:35:48;19.50;;;9.15;;
79702;SDS011;69172;52.352;5.006;2024-02-26T06:38:14;18.95;;;8.23;;
79702;SDS011;69172;52.352;5.006;2024-02-26T06:40:40;19.33;;;8.45;;
79702;SDS011;69172;52.352;5.006;2024-02-26T06:43:05;18.27;;;8.75;;
79702;SDS011;69172;52.352;5.006;2024-02-26T06:45:31;18.40;;;8.25;;
79702;SDS011;69172;52.352;5.006;2024-02-26T06:47:56;15.35;;;7.32;;
79702;SDS011;69172;52.352;5.006;2024-02-26T06:50:21;15.00;;;7.40;;
79702;SDS011;69172;52.352;5.006;2024-02-26T06:52:47;17.15;;;7.65;;
79702;SDS011;69172;52.352;5.006;2024-02-26T06:55:13;14.95;;;8.07;;
79702;SDS011;69172;52.352;5.006;2024-02-26T06:57:38;17.85;;;7.63;;
79702;SDS011;69172;52.352;5.006;2024-02-26T07:00:04;15.70;;;6.97;;
79702;SDS011;69172;52.352;5.006;2024-02-26T07:02:30;17.25;;;7.35;;
79702;SDS011;69172;52.352;5.006;2024-02-26T07:04:56;14.10;;;6.72;;
79702;SDS011;69172;52.352;5.006;2024-02-26T07:07:23;15.88;;;6.85;;
79702;SDS011;69172;52.352;5.006;2024-02-26T07:09:49;15.30;;;6.50;;
79702;SDS011;69172;52.352;5.006;2024-02-26T07:12:15;14.95;;;6.68;;
79702;SDS011;69172;52.352;5.006;2024-02-26T07:14:47;14.82;;;5.57;;
79702;SDS011;69172;52.352;5.006;2024-02-26T07:17:13;11.80;;;5.47;;
79702;SDS011;69172;52.352;5.006;2024-02-26T07:19:41;11.90;;;5.25;;
79702;SDS011;69172;52.352;5.006;2024-02-26T07:22:06;11.05;;;4.88;;
79702;SDS011;69172;52.352;5.006;2024-02-26T07:24:33;14.77;;;5.93;;
79702;SDS011;69172;52.352;5.006;2024-02-26T07:26:59;12.30;;;5.32;;
79702;SDS011;69172;52.352;5.006;2024-02-26T07:29:24;11.48;;;4.57;;
79702;SDS011;69172;52.352;5.006;2024-02-26T07:31:50;11.35;;;4.70;;
79702;SDS011;69172;52.352;5.006;2024-02-26T07:34:15;11.57;;;4.47;;
79702;SDS011;69172;52.352;5.006;2024-02-26T07:36:42;10.45;;;4.53;;
79702;SDS011;69172;52.352;5.006;2024-02-26T07:39:07;12.52;;;4.47;;
79702;SDS011;69172;52.352;5.006;2024-02-26T07:41:39;9.73;;;4.03;;
79702;SDS011;69172;52.352;5.006;2024-02-26T07:44:04;10.30;;;4.30;;
79702;SDS011;69172;52.352;5.006;2024-02-26T07:46:31;9.65;;;3.63;;
79702;SDS011;69172;52.352;5.006;2024-02-26T07:48:57;10.23;;;3.75;;
79702;SDS011;69172;52.352;5.006;2024-02-26T07:51:22;10.10;;;3.75;;
79702;SDS011;69172;52.352;5.006;2024-02-26T07:53:53;9.68;;;4.03;;
79702;SDS011;69172;52.352;5.006;2024-02-26T07:56:18;11.73;;;4.97;;
79702;SDS011;69172;52.352;5.006;2024-02-26T07:58:44;11.13;;;3.92;;
79702;SDS011;69172;52.352;5.006;2024-02-26T08:01:12;9.20;;;3.97;;
79702;SDS011;69172;52.352;5.006;2024-02-26T08:03:39;9.25;;;3.72;;
79702;SDS011;69172;52.352;5.006;2024-02-26T08:06:04;9.10;;;3.90;;
79702;SDS011;69172;52.352;5.006;2024-02-26T08:08:36;9.68;;;3.63;;
79702;SDS011;69172;52.352;5.006;2024-02-26T08:11:02;10.02;;;3.78;;
79702;SDS011;69172;52.352;5.006;2024-02-26T08:13:27;9.63;;;3.58;;
79702;SDS011;69172;52.352;5.006;2024-02-26T08:15:53;9.15;;;3.42;;
79702;SDS011;69172;52.352;5.006;2024-02-26T08:18:19;10.30;;;3.65;;
79702;SDS011;69172;52.352;5.006;2024-02-26T08:20:44;7.03;;;2.70;;
79702;SDS011;69172;52.352;5.006;2024-02-26T08:23:10;9.18;;;3.83;;
79702;SDS011;69172;52.352;5.006;2024-02-26T08:25:35;8.35;;;3.17;;
79702;SDS011;69172;52.352;5.006;2024-02-26T08:28:01;6.70;;;2.97;;
79702;SDS011;69172;52.352;5.006;2024-02-26T08:30:27;7.45;;;3.05;;
79702;SDS011;69172;52.352;5.006;2024-02-26T08:32:52;7.65;;;3.00;;
79702;SDS011;69172;52.352;5.006;2024-02-26T08:35:18;10.10;;;3.00;;
79702;SDS011;69172;52.352;5.006;2024-02-26T08:37:44;6.22;;;2.47;;
79702;SDS011;69172;52.352;5.006;2024-02-26T08:40:11;8.85;;;2.95;;
79702;SDS011;69172;52.352;5.006;2024-02-26T08:42:36;9.73;;;4.10;;
79702;SDS011;69172;52.352;5.006;2024-02-26T08:45:02;7.53;;;3.10;;
79702;SDS011;69172;52.352;5.006;2024-02-26T08:47:28;9.98;;;3.80;;
79702;SDS011;69172;52.352;5.006;2024-02-26T08:49:53;8.18;;;3.25;;
79702;SDS011;69172;52.352;5.006;2024-02-26T08:52:19;8.32;;;3.55;;
79702;SDS011;69172;52.352;5.006;2024-02-26T08:54:46;7.15;;;2.72;;
79702;SDS011;69172;52.352;5.006;2024-02-26T08:57:13;10.15;;;3.38;;
79702;SDS011;69172;52.352;5.006;2024-02-26T08:59:39;8.85;;;3.45;;
79702;SDS011;69172;52.352;5.006;2024-02-26T09:02:04;7.82;;;3.17;;
79702;SDS011;69172;52.352;5.006;2024-02-26T09:04:30;8.85;;;3.25;;
79702;SDS011;69172;52.352;5.006;2024-02-26T09:07:02;8.63;;;3.17;;
79702;SDS011;69172;52.352;5.006;2024-02-26T09:09:29;8.07;;;3.10;;
79702;SDS011;69172;52.352;5.006;2024-02-26T09:11:55;9.02;;;3.55;;
79702;SDS011;69172;52.352;5.006;2024-02-26T09:14:21;10.15;;;3.28;;
79702;SDS011;69172;52.352;5.006;2024-02-26T09:16:51;9.70;;;3.33;;
79702;SDS011;69172;52.352;5.006;2024-02-26T09:19:18;10.50;;;3.72;;
79702;SDS011;69172;52.352;5.006;2024-02-26T09:21:44;8.20;;;3.28;;
79702;SDS011;69172;52.352;5.006;2024-02-26T09:24:12;7.78;;;3.53;;
79702;SDS011;69172;52.352;5.006;2024-02-26T09:26:38;10.23;;;4.50;;
79702;SDS011;69172;52.352;5.006;2024-02-26T09:29:03;8.43;;;3.25;;
79702;SDS011;69172;52.352;5.006;2024-02-26T09:31:29;8.60;;;3.10;;
79702;SDS011;69172;52.352;5.006;2024-02-26T09:33:56;9.75;;;3.55;;
79702;SDS011;69172;52.352;5.006;2024-02-26T09:36:23;8.57;;;3.53;;
79702;SDS011;69172;52.352;5.006;2024-02-26T09:38:49;9.68;;;3.90;;
79702;SDS011;69172;52.352;5.006;2024-02-26T09:41:15;8.43;;;3.58;;
79702;SDS011;69172;52.352;5.006;2024-02-26T09:43:44;9.02;;;3.63;;
79702;SDS011;69172;52.352;5.006;2024-02-26T09:46:13;9.95;;;4.18;;
79702;SDS011;69172;52.352;5.006;2024-02-26T09:48:42;9.00;;;3.80;;
79702;SDS011;69172;52.352;5.006;2024-02-26T09:51:11;7.80;;;3.45;;
79702;SDS011;69172;52.352;5.006;2024-02-26T09:53:40;8.70;;;3.40;;
79702;SDS011;69172;52.352;5.006;2024-02-26T09:56:09;9.10;;;3.47;;
79702;SDS011;69172;52.352;5.006;2024-02-26T09:58:40;8.63;;;4.03;;
79702;SDS011;69172;52.352;5.006;2024-02-26T10:01:10;9.30;;;3.42;;
79702;SDS011;69172;52.352;5.006;2024-02-26T10:03:39;8.05;;;3.13;;
79702;SDS011;69172;52.352;5.006;2024-02-26T10:06:13;12.48;;;3.20;;
79702;SDS011;69172;52.352;5.006;2024-02-26T10:08:40;10.38;;;3.35;;
79702;SDS011;69172;52.352;5.006;2024-02-26T10:13:43;8.70;;;3.38;;
79702;SDS011;69172;52.352;5.006;2024-02-26T10:16:10;9.43;;;3.40;;
79702;SDS011;69172;52.352;5.006;2024-02-26T10:18:48;11.30;;;3.80;;
79702;SDS011;69172;52.352;5.006;2024-02-26T10:21:16;8.30;;;3.60;;
79702;SDS011;69172;52.352;5.006;2024-02-26T10:23:47;14.02;;;4.00;;
79702;SDS011;69172;52.352;5.006;2024-02-26T10:26:14;7.78;;;3.45;;
79702;SDS011;69172;52.352;5.006;2024-02-26T10:28:44;8.63;;;3.08;;
79702;SDS011;69172;52.352;5.006;2024-02-26T10:31:10;7.05;;;2.95;;
79702;SDS011;69172;52.352;5.006;2024-02-26T10:33:43;10.20;;;3.28;;
79702;SDS011;69172;52.352;5.006;2024-02-26T10:36:21;8.18;;;3.00;;
79702;SDS011;69172;52.352;5.006;2024-02-26T10:38:47;7.55;;;3.33;;
79702;SDS011;69172;52.352;5.006;2024-02-26T10:41:13;7.45;;;2.97;;
79702;SDS011;69172;52.352;5.006;2024-02-26T10:46:34;11.85;;;3.70;;
79702;SDS011;69172;52.352;5.006;2024-02-26T10:49:03;10.05;;;3.20;;
79702;SDS011;69172;52.352;5.006;2024-02-26T10:51:31;7.28;;;2.78;;
79702;SDS011;69172;52.352;5.006;2024-02-26T10:54:00;7.05;;;2.90;;
79702;SDS011;69172;52.352;5.006;2024-02-26T10:56:33;9.15;;;3.15;;
79702;SDS011;69172;52.352;5.006;2024-02-26T10:59:00;6.30;;;2.72;;
79702;SDS011;69172;52.352;5.006;2024-02-26T11:01:27;8.75;;;2.92;;
79702;SDS011;69172;52.352;5.006;2024-02-26T11:03:57;5.72;;;2.50;;
79702;SDS011;69172;52.352;5.006;2024-02-26T11:06:24;7.05;;;2.28;;
79702;SDS011;69172;52.352;5.006;2024-02-26T11:08:51;6.28;;;2.33;;
79702;SDS011;69172;52.352;5.006;2024-02-26T11:11:19;5.45;;;2.05;;
79702;SDS011;69172;52.352;5.006;2024-02-26T11:13:46;5.82;;;2.00;;
79702;SDS011;69172;52.352;5.006;2024-02-26T11:16:18;4.32;;;1.77;;
79702;SDS011;69172;52.352;5.006;2024-02-26T11:18:49;5.15;;;2.03;;
79702;SDS011;69172;52.352;5.006;2024-02-26T11:21:19;6.78;;;2.10;;
79702;SDS011;69172;52.352;5.006;2024-02-26T11:24:01;4.82;;;1.98;;
79702;SDS011;69172;52.352;5.006;2024-02-26T11:26:39;3.30;;;1.58;;
79702;SDS011;69172;52.352;5.006;2024-02-26T11:29:28;4.13;;;1.70;;
79702;SDS011;69172;52.352;5.006;2024-02-26T11:36:11;3.63;;;1.35;;
79702;SDS011;69172;52.352;5.006;2024-02-26T11:38:39;4.35;;;1.63;;
79702;SDS011;69172;52.352;5.006;2024-02-26T11:41:05;4.95;;;1.55;;
79702;SDS011;69172;52.352;5.006;2024-02-26T11:49:02;5.10;;;1.52;;
79702;SDS011;69172;52.352;5.006;2024-02-26T11:51:58;5.75;;;1.75;;
79702;SDS011;69172;52.352;5.006;2024-02-26T11:54:45;4.70;;;1.77;;
79702;SDS011;69172;52.352;5.006;2024-02-26T11:57:37;4.72;;;1.58;;
79702;SDS011;69172;52.352;5.006;2024-02-26T12:02:50;4.72;;;1.67;;
79702;SDS011;69172;52.352;5.006;2024-02-26T12:05:25;4.10;;;1.70;;
79702;SDS011;69172;52.352;5.006;2024-02-26T12:07:54;3.88;;;1.48;;
79702;SDS011;69172;52.352;5.006;2024-02-26T12:10:33;5.10;;;1.50;;
79702;SDS011;69172;52.352;5.006;2024-02-26T12:15:44;5.03;;;1.60;;
79702;SDS011;69172;52.352;5.006;2024-02-26T12:18:15;3.80;;;1.25;;
79702;SDS011;69172;52.352;5.006;2024-02-26T12:23:09;4.90;;;1.85;;
79702;SDS011;69172;52.352;5.006;2024-02-26T12:25:39;4.88;;;1.77;;
79702;SDS011;69172;52.352;5.006;2024-02-26T12:28:05;7.18;;;1.92;;
79702;SDS011;69172;52.352;5.006;2024-02-26T12:30:33;5.93;;;1.80;;
79702;SDS011;69172;52.352;5.006;2024-02-26T12:33:00;5.63;;;1.88;;
79702;SDS011;69172;52.352;5.006;2024-02-26T12:35:28;5.70;;;1.92;;
79702;SDS011;69172;52.352;5.006;2024-02-26T12:37:58;5.90;;;2.00;;
79702;SDS011;69172;52.352;5.006;2024-02-26T12:40:23;5.88;;;1.88;;
79702;SDS011;69172;52.352;5.006;2024-02-26T12:42:56;5.68;;;2.17;;
79702;SDS011;69172;52.352;5.006;2024-02-26T12:45:21;6.45;;;2.42;;
79702;SDS011;69172;52.352;5.006;2024-02-26T12:47:47;7.30;;;1.90;;
79702;SDS011;69172;52.352;5.006;2024-02-26T12:50:14;5.10;;;1.83;;
79702;SDS011;69172;52.352;5.006;2024-02-26T12:52:49;5.15;;;1.80;;
79702;SDS011;69172;52.352;5.006;2024-02-26T12:55:18;6.68;;;2.35;;
79702;SDS011;69172;52.352;5.006;2024-02-26T12:57:55;6.70;;;1.80;;
79702;SDS011;69172;52.352;5.006;2024-02-26T13:00:25;5.03;;;1.80;;
79702;SDS011;69172;52.352;5.006;2024-02-26T13:02:53;5.90;;;1.73;;
79702;SDS011;69172;52.352;5.006;2024-02-26T13:05:20;5.88;;;2.00;;
79702;SDS011;69172;52.352;5.006;2024-02-26T13:11:39;8.55;;;1.58;;
79702;SDS011;69172;52.352;5.006;2024-02-26T13:14:05;5.10;;;1.70;;
79702;SDS011;69172;52.352;5.006;2024-02-26T13:16:31;5.38;;;1.40;;
79702;SDS011;69172;52.352;5.006;2024-02-26T13:19:09;4.40;;;1.70;;
79702;SDS011;69172;52.352;5.006;2024-02-26T13:21:35;4.30;;;1.40;;
79702;SDS011;69172;52.352;5.006;2024-02-26T13:24:00;7.65;;;1.80;;
79702;SDS011;69172;52.352;5.006;2024-02-26T13:26:26;4.47;;;1.70;;
79702;SDS011;69172;52.352;5.006;2024-02-26T13:31:42;6.28;;;2.20;;
79702;SDS011;69172;52.352;5.006;2024-02-26T13:34:08;5.63;;;1.98;;
79702;SDS011;69172;52.352;5.006;2024-02-26T13:36:34;5.28;;;1.90;;
79702;SDS011;69172;52.352;5.006;2024-02-26T13:39:04;5.70;;;1.98;;
79702;SDS011;69172;52.352;5.006;2024-02-26T13:41:36;8.23;;;2.50;;
79702;SDS011;69172;52.352;5.006;2024-02-26T13:44:01;4.50;;;1.75;;
79702;SDS011;69172;52.352;5.006;2024-02-26T13:46:33;5.07;;;1.73;;
79702;SDS011;69172;52.352;5.006;2024-02-26T13:51:24;7.87;;;2.13;;
79702;SDS011;69172;52.352;5.006;2024-02-26T13:53:50;7.32;;;2.40;;
79702;SDS011;69172;52.352;5.006;2024-02-26T13:56:17;9.70;;;2.25;;
79702;SDS011;69172;52.352;5.006;2024-02-26T13:59:00;9.40;;;2.40;;
79702;SDS011;69172;52.352;5.006;2024-02-26T14:01:26;7.60;;;2.42;;
79702;SDS011;69172;52.352;5.006;2024-02-26T14:03:52;9.00;;;2.63;;
79702;SDS011;69172;52.352;5.006;2024-02-26T14:06:22;10.70;;;2.92;;
79702;SDS011;69172;52.352;5.006;2024-02-26T14:09:15;8.90;;;3.22;;
79702;SDS011;69172;52.352;5.006;2024-02-26T14:11:46;9.18;;;2.63;;
79702;SDS011;69172;52.352;5.006;2024-02-26T14:14:13;9.63;;;3.05;;
79702;SDS011;69172;52.352;5.006;2024-02-26T14:17:05;8.30;;;2.92;;
79702;SDS011;69172;52.352;5.006;2024-02-26T14:19:32;10.35;;;3.20;;
79702;SDS011;69172;52.352;5.006;2024-02-26T14:21:58;11.88;;;3.50;;
79702;SDS011;69172;52.352;5.006;2024-02-26T14:24:23;9.48;;;3.63;;
79702;SDS011;69172;52.352;5.006;2024-02-26T14:26:49;9.75;;;3.15;;
79702;SDS011;69172;52.352;5.006;2024-02-26T14:29:15;7.80;;;3.00;;
79702;SDS011;69172;52.352;5.006;2024-02-26T14:31:41;8.30;;;2.60;;
79702;SDS011;69172;52.352;5.006;2024-02-26T14:34:07;7.55;;;2.65;;
79702;SDS011;69172;52.352;5.006;2024-02-26T14:36:34;8.75;;;3.25;;
79702;SDS011;69172;52.352;5.006;2024-02-26T14:39:01;9.80;;;3.72;;
79702;SDS011;69172;52.352;5.006;2024-02-26T14:41:27;10.20;;;3.05;;
79702;SDS011;69172;52.352;5.006;2024-02-26T14:43:52;7.95;;;3.00;;
79702;SDS011;69172;52.352;5.006;2024-02-26T14:46:18;10.50;;;3.20;;
79702;SDS011;69172;52.352;5.006;2024-02-26T14:48:43;7.85;;;3.28;;
79702;SDS011;69172;52.352;5.006;2024-02-26T14:51:08;11.45;;;2.88;;
79702;SDS011;69172;52.352;5.006;2024-02-26T14:53:34;10.82;;;3.60;;
79702;SDS011;69172;52.352;5.006;2024-02-26T14:56:00;11.43;;;3.55;;
79702;SDS011;69172;52.352;5.006;2024-02-26T14:58:26;11.07;;;3.40;;
79702;SDS011;69172;52.352;5.006;2024-02-26T15:00:52;12.25;;;3.47;;
79702;SDS011;69172;52.352;5.006;2024-02-26T15:03:18;9.73;;;2.92;;
79702;SDS011;69172;52.352;5.006;2024-02-26T15:05:43;11.27;;;2.80;;
79702;SDS011;69172;52.352;5.006;2024-02-26T15:08:09;8.77;;;3.70;;
79702;SDS011;69172;52.352;5.006;2024-02-26T15:10:44;9.23;;;3.05;;
79702;SDS011;69172;52.352;5.006;2024-02-26T15:13:14;9.48;;;3.15;;
79702;SDS011;69172;52.352;5.006;2024-02-26T15:15:40;8.93;;;3.25;;
79702;SDS011;69172;52.352;5.006;2024-02-26T15:18:06;8.77;;;3.38;;
79702;SDS011;69172;52.352;5.006;2024-02-26T15:20:33;7.60;;;2.92;;
79702;SDS011;69172;52.352;5.006;2024-02-26T15:22:58;9.77;;;3.35;;
79702;SDS011;69172;52.352;5.006;2024-02-26T15:25:24;9.32;;;3.45;;
79702;SDS011;69172;52.352;5.006;2024-02-26T15:27:49;9.05;;;3.47;;
79702;SDS011;69172;52.352;5.006;2024-02-26T15:30:15;8.00;;;3.10;;